sensor_id;sensor_type;location;lat;lon;timestamp;P1;durP1;ratioP1;P2;durP2;ratioP2
3297;SDS011;1661;53.572;10.174;2023-03-11T00:01:23;20.85;;;15.73;;
3297;SDS011;1661;53.572;10.174;2023-03-11T00:03:50;22.42;;;15.75;;
3297;SDS011;1661;53.572;10.174;2023-03-11T00:06:17;19.38;;;13.75;;
3297;SDS011;1661;53.572;10.174;2023-03-11T00:08:45;25.70;;;17.73;;
3297;SDS011;1661;53.572;10.174;2023-03-11T00:11:16;20.42;;;15.75;;
3297;SDS011;1661;53.572;10.174;2023-03-11T00:13:43;19.20;;;16.30;;
3297;SDS011;1661;53.572;10.174;2023-03-11T00:16:10;24.83;;;17.73;;
3297;SDS011;1661;53.572;10.174;2023-03-11T00:18:37;24.52;;;18.25;;
3297;SDS011;1661;53.572;10.174;2023-03-11T00:21:13;24.45;;;16.40;;
3297;SDS011;1661;53.572;10.174;2023-03-11T00:23:41;27.02;;;17.92;;
3297;SDS011;1661;53.572;10.174;2023-03-11T00:26:09;22.83;;;16.42;;
3297;SDS011;1661;53.572;10.174;2023-03-11T00:28:36;23.88;;;17.38;;
3297;SDS011;1661;53.572;10.174;2023-03-11T00:31:03;24.88;;;17.48;;
3297;SDS011;1661;53.572;10.174;2023-03-11T00:33:30;25.45;;;17.48;;
3297;SDS011;1661;53.572;10.174;2023-03-11T00:35:59;31.58;;;21.10;;
3297;SDS011;1661;53.572;10.174;2023-03-11T00:38:26;19.95;;;16.20;;
3297;SDS011;1661;53.572;10.174;2023-03-11T00:40:53;26.67;;;19.77;;
3297;SDS011;1661;53.572;10.174;2023-03-11T00:43:24;30.38;;;20.50;;
3297;SDS011;1661;53.572;10.174;2023-03-11T00:45:50;31.20;;;21.05;;
3297;SDS011;1661;53.572;10.174;2023-03-11T00:48:17;27.58;;;20.45;;
3297;SDS011;1661;53.572;10.174;2023-03-11T00:50:44;28.15;;;18.83;;
3297;SDS011;1661;53.572;10.174;2023-03-11T00:53:11;24.88;;;18.75;;
3297;SDS011;1661;53.572;10.174;2023-03-11T00:55:38;31.90;;;20.25;;
3297;SDS011;1661;53.572;10.174;2023-03-11T00:58:05;22.42;;;16.90;;
3297;SDS011;1661;53.572;10.174;2023-03-11T01:00:34;26.10;;;19.15;;
3297;SDS011;1661;53.572;10.174;2023-03-11T01:03:01;30.48;;;17.73;;
3297;SDS011;1661;53.572;10.174;2023-03-11T01:05:28;25.90;;;17.00;;
3297;SDS011;1661;53.572;10.174;2023-03-11T01:07:56;24.45;;;16.08;;
3297;SDS011;1661;53.572;10.174;2023-03-11T01:10:25;30.02;;;17.83;;
3297;SDS011;1661;53.572;10.174;2023-03-11T01:12:55;30.42;;;20.85;;
3297;SDS011;1661;53.572;10.174;2023-03-11T01:15:24;23.48;;;14.60;;
3297;SDS011;1661;53.572;10.174;2023-03-11T01:17:54;28.85;;;20.85;;
3297;SDS011;1661;53.572;10.174;2023-03-11T01:20:21;29.65;;;17.45;;
3297;SDS011;1661;53.572;10.174;2023-03-11T01:22:48;34.35;;;20.67;;
3297;SDS011;1661;53.572;10.174;2023-03-11T01:25:15;35.28;;;23.33;;
3297;SDS011;1661;53.572;10.174;2023-03-11T01:27:43;37.65;;;22.58;;
3297;SDS011;1661;53.572;10.174;2023-03-11T01:30:12;35.47;;;22.00;;
3297;SDS011;1661;53.572;10.174;2023-03-11T01:32:40;34.85;;;23.85;;
3297;SDS011;1661;53.572;10.174;2023-03-11T01:35:10;27.98;;;18.73;;
3297;SDS011;1661;53.572;10.174;2023-03-11T01:37:38;33.85;;;21.70;;
3297;SDS011;1661;53.572;10.174;2023-03-11T01:40:10;32.28;;;20.75;;
3297;SDS011;1661;53.572;10.174;2023-03-11T01:42:40;33.25;;;20.85;;
3297;SDS011;1661;53.572;10.174;2023-03-11T01:45:13;27.65;;;18.80;;
3297;SDS011;1661;53.572;10.174;2023-03-11T01:47:56;29.58;;;20.55;;
3297;SDS011;1661;53.572;10.174;2023-03-11T01:50:24;27.83;;;18.25;;
3297;SDS011;1661;53.572;10.174;2023-03-11T01:52:54;26.10;;;19.10;;
3297;SDS011;1661;53.572;10.174;2023-03-11T01:55:21;32.35;;;19.58;;
3297;SDS011;1661;53.572;10.174;2023-03-11T01:57:48;32.05;;;21.95;;
3297;SDS011;1661;53.572;10.174;2023-03-11T02:00:17;25.50;;;19.50;;
3297;SDS011;1661;53.572;10.174;2023-03-11T02:02:44;28.08;;;19.27;;
3297;SDS011;1661;53.572;10.174;2023-03-11T02:05:15;26.45;;;17.85;;
3297;SDS011;1661;53.572;10.174;2023-03-11T02:07:45;27.35;;;18.13;;
3297;SDS011;1661;53.572;10.174;2023-03-11T02:10:12;23.23;;;16.92;;
3297;SDS011;1661;53.572;10.174;2023-03-11T02:12:42;25.92;;;18.73;;
3297;SDS011;1661;53.572;10.174;2023-03-11T02:15:13;27.08;;;16.33;;
3297;SDS011;1661;53.572;10.174;2023-03-11T02:17:41;22.92;;;17.30;;
3297;SDS011;1661;53.572;10.174;2023-03-11T02:20:13;30.15;;;18.35;;
3297;SDS011;1661;53.572;10.174;2023-03-11T02:22:48;25.90;;;19.17;;
3297;SDS011;1661;53.572;10.174;2023-03-11T02:25:17;28.75;;;19.25;;
3297;SDS011;1661;53.572;10.174;2023-03-11T02:27:51;26.25;;;18.10;;
3297;SDS011;1661;53.572;10.174;2023-03-11T02:30:20;27.02;;;18.55;;
3297;SDS011;1661;53.572;10.174;2023-03-11T02:32:48;26.45;;;17.88;;
3297;SDS011;1661;53.572;10.174;2023-03-11T02:35:16;23.80;;;15.77;;
3297;SDS011;1661;53.572;10.174;2023-03-11T02:37:43;24.92;;;18.90;;
3297;SDS011;1661;53.572;10.174;2023-03-11T02:43:19;26.35;;;19.50;;
3297;SDS011;1661;53.572;10.174;2023-03-11T02:45:50;32.42;;;18.75;;
3297;SDS011;1661;53.572;10.174;2023-03-11T02:48:16;22.85;;;15.90;;
3297;SDS011;1661;53.572;10.174;2023-03-11T02:50:44;26.77;;;17.75;;
3297;SDS011;1661;53.572;10.174;2023-03-11T02:53:12;22.52;;;16.73;;
3297;SDS011;1661;53.572;10.174;2023-03-11T02:55:39;26.67;;;17.90;;
3297;SDS011;1661;53.572;10.174;2023-03-11T02:58:06;25.63;;;17.98;;
3297;SDS011;1661;53.572;10.174;2023-03-11T03:00:34;28.92;;;17.25;;
3297;SDS011;1661;53.572;10.174;2023-03-11T03:03:01;26.10;;;16.52;;
3297;SDS011;1661;53.572;10.174;2023-03-11T03:05:28;24.42;;;17.60;;
3297;SDS011;1661;53.572;10.174;2023-03-11T03:07:55;22.02;;;17.17;;
3297;SDS011;1661;53.572;10.174;2023-03-11T03:10:22;25.15;;;17.65;;
3297;SDS011;1661;53.572;10.174;2023-03-11T03:12:50;24.70;;;18.45;;
3297;SDS011;1661;53.572;10.174;2023-03-11T03:15:19;26.83;;;19.17;;
3297;SDS011;1661;53.572;10.174;2023-03-11T03:17:47;33.17;;;20.77;;
3297;SDS011;1661;53.572;10.174;2023-03-11T03:20:15;28.27;;;18.25;;
3297;SDS011;1661;53.572;10.174;2023-03-11T03:22:44;26.80;;;20.15;;
3297;SDS011;1661;53.572;10.174;2023-03-11T03:25:11;20.30;;;15.50;;
3297;SDS011;1661;53.572;10.174;2023-03-11T03:27:39;25.17;;;17.90;;
3297;SDS011;1661;53.572;10.174;2023-03-11T03:30:11;27.35;;;18.35;;
3297;SDS011;1661;53.572;10.174;2023-03-11T03:32:38;28.25;;;19.08;;
3297;SDS011;1661;53.572;10.174;2023-03-11T03:35:07;21.90;;;15.45;;
3297;SDS011;1661;53.572;10.174;2023-03-11T03:37:34;23.70;;;16.38;;
3297;SDS011;1661;53.572;10.174;2023-03-11T03:40:02;22.75;;;13.57;;
3297;SDS011;1661;53.572;10.174;2023-03-11T03:42:31;20.10;;;14.95;;
3297;SDS011;1661;53.572;10.174;2023-03-11T03:44:59;21.85;;;15.20;;
3297;SDS011;1661;53.572;10.174;2023-03-11T03:47:26;23.02;;;16.10;;
3297;SDS011;1661;53.572;10.174;2023-03-11T03:49:52;20.65;;;14.48;;
3297;SDS011;1661;53.572;10.174;2023-03-11T03:52:20;22.33;;;15.20;;
3297;SDS011;1661;53.572;10.174;2023-03-11T03:54:47;21.73;;;14.38;;
3297;SDS011;1661;53.572;10.174;2023-03-11T03:57:14;25.38;;;15.35;;
3297;SDS011;1661;53.572;10.174;2023-03-11T03:59:41;24.85;;;15.90;;
3297;SDS011;1661;53.572;10.174;2023-03-11T04:02:08;19.50;;;14.45;;
3297;SDS011;1661;53.572;10.174;2023-03-11T04:04:37;21.52;;;15.38;;
3297;SDS011;1661;53.572;10.174;2023-03-11T04:07:04;16.40;;;13.13;;
3297;SDS011;1661;53.572;10.174;2023-03-11T04:09:32;20.80;;;15.05;;
3297;SDS011;1661;53.572;10.174;2023-03-11T04:11:59;20.75;;;13.57;;
3297;SDS011;1661;53.572;10.174;2023-03-11T04:14:26;21.15;;;14.80;;
3297;SDS011;1661;53.572;10.174;2023-03-11T04:16:53;19.38;;;14.65;;
3297;SDS011;1661;53.572;10.174;2023-03-11T04:19:19;19.05;;;14.43;;
3297;SDS011;1661;53.572;10.174;2023-03-11T04:21:46;21.40;;;15.30;;
3297;SDS011;1661;53.572;10.174;2023-03-11T04:24:14;21.10;;;14.73;;
3297;SDS011;1661;53.572;10.174;2023-03-11T04:26:42;23.45;;;16.85;;
3297;SDS011;1661;53.572;10.174;2023-03-11T04:29:09;18.52;;;13.20;;
3297;SDS011;1661;53.572;10.174;2023-03-11T04:31:36;22.85;;;15.70;;
3297;SDS011;1661;53.572;10.174;2023-03-11T04:34:03;16.65;;;13.30;;
3297;SDS011;1661;53.572;10.174;2023-03-11T04:36:30;17.40;;;12.48;;
3297;SDS011;1661;53.572;10.174;2023-03-11T04:38:56;19.70;;;14.90;;
3297;SDS011;1661;53.572;10.174;2023-03-11T04:41:23;23.08;;;14.90;;
3297;SDS011;1661;53.572;10.174;2023-03-11T04:43:51;19.23;;;12.60;;
3297;SDS011;1661;53.572;10.174;2023-03-11T04:46:18;19.08;;;13.95;;
3297;SDS011;1661;53.572;10.174;2023-03-11T04:48:45;19.48;;;13.95;;
3297;SDS011;1661;53.572;10.174;2023-03-11T04:51:12;17.52;;;13.50;;
3297;SDS011;1661;53.572;10.174;2023-03-11T04:53:41;13.55;;;11.35;;
3297;SDS011;1661;53.572;10.174;2023-03-11T04:56:11;17.88;;;13.43;;
3297;SDS011;1661;53.572;10.174;2023-03-11T04:58:41;12.25;;;9.93;;
3297;SDS011;1661;53.572;10.174;2023-03-11T05:01:09;22.50;;;13.68;;
3297;SDS011;1661;53.572;10.174;2023-03-11T05:03:36;16.08;;;10.63;;
3297;SDS011;1661;53.572;10.174;2023-03-11T05:06:03;16.77;;;10.25;;
3297;SDS011;1661;53.572;10.174;2023-03-11T05:08:30;17.48;;;13.45;;
3297;SDS011;1661;53.572;10.174;2023-03-11T05:10:57;13.65;;;11.18;;
3297;SDS011;1661;53.572;10.174;2023-03-11T05:13:23;23.73;;;14.07;;
3297;SDS011;1661;53.572;10.174;2023-03-11T05:15:50;16.45;;;13.00;;
3297;SDS011;1661;53.572;10.174;2023-03-11T05:18:18;11.98;;;9.40;;
3297;SDS011;1661;53.572;10.174;2023-03-11T05:20:48;17.02;;;12.88;;
3297;SDS011;1661;53.572;10.174;2023-03-11T05:23:15;22.35;;;15.43;;
3297;SDS011;1661;53.572;10.174;2023-03-11T05:25:42;16.27;;;11.15;;
3297;SDS011;1661;53.572;10.174;2023-03-11T05:28:09;20.50;;;14.43;;
3297;SDS011;1661;53.572;10.174;2023-03-11T05:30:36;12.10;;;9.75;;
3297;SDS011;1661;53.572;10.174;2023-03-11T05:33:03;18.75;;;12.35;;
3297;SDS011;1661;53.572;10.174;2023-03-11T05:35:31;12.77;;;10.45;;
3297;SDS011;1661;53.572;10.174;2023-03-11T05:38:01;15.57;;;12.00;;
3297;SDS011;1661;53.572;10.174;2023-03-11T05:40:28;18.95;;;13.52;;
3297;SDS011;1661;53.572;10.174;2023-03-11T05:42:54;18.10;;;14.38;;
3297;SDS011;1661;53.572;10.174;2023-03-11T05:45:21;17.42;;;11.85;;
3297;SDS011;1661;53.572;10.174;2023-03-11T05:47:48;17.88;;;12.73;;
3297;SDS011;1661;53.572;10.174;2023-03-11T05:50:16;23.90;;;12.13;;
3297;SDS011;1661;53.572;10.174;2023-03-11T05:52:44;21.30;;;12.95;;
3297;SDS011;1661;53.572;10.174;2023-03-11T05:55:11;14.30;;;10.85;;
3297;SDS011;1661;53.572;10.174;2023-03-11T05:57:38;18.77;;;14.23;;
3297;SDS011;1661;53.572;10.174;2023-03-11T06:00:06;18.50;;;13.20;;
3297;SDS011;1661;53.572;10.174;2023-03-11T06:02:36;21.13;;;14.43;;
3297;SDS011;1661;53.572;10.174;2023-03-11T06:05:06;16.42;;;11.85;;
3297;SDS011;1661;53.572;10.174;2023-03-11T06:07:36;20.77;;;14.65;;
3297;SDS011;1661;53.572;10.174;2023-03-11T06:10:05;19.33;;;12.32;;
3297;SDS011;1661;53.572;10.174;2023-03-11T06:12:33;21.50;;;16.70;;
3297;SDS011;1661;53.572;10.174;2023-03-11T06:15:00;18.30;;;13.25;;
3297;SDS011;1661;53.572;10.174;2023-03-11T06:17:27;24.17;;;14.95;;
3297;SDS011;1661;53.572;10.174;2023-03-11T06:19:56;17.45;;;13.75;;
3297;SDS011;1661;53.572;10.174;2023-03-11T06:22:23;21.38;;;13.13;;
3297;SDS011;1661;53.572;10.174;2023-03-11T06:24:53;23.90;;;14.60;;
3297;SDS011;1661;53.572;10.174;2023-03-11T06:27:21;18.80;;;14.07;;
3297;SDS011;1661;53.572;10.174;2023-03-11T06:29:50;23.65;;;14.75;;
3297;SDS011;1661;53.572;10.174;2023-03-11T06:32:18;22.10;;;14.52;;
3297;SDS011;1661;53.572;10.174;2023-03-11T06:34:51;17.52;;;12.52;;
3297;SDS011;1661;53.572;10.174;2023-03-11T06:37:21;17.58;;;13.50;;
3297;SDS011;1661;53.572;10.174;2023-03-11T06:39:50;16.48;;;12.02;;
3297;SDS011;1661;53.572;10.174;2023-03-11T06:42:17;22.40;;;13.40;;
3297;SDS011;1661;53.572;10.174;2023-03-11T06:44:46;20.15;;;12.90;;
3297;SDS011;1661;53.572;10.174;2023-03-11T06:47:13;22.15;;;14.75;;
3297;SDS011;1661;53.572;10.174;2023-03-11T06:49:40;16.83;;;11.60;;
3297;SDS011;1661;53.572;10.174;2023-03-11T06:52:07;14.10;;;11.20;;
3297;SDS011;1661;53.572;10.174;2023-03-11T06:54:34;17.92;;;12.00;;
3297;SDS011;1661;53.572;10.174;2023-03-11T06:57:01;15.85;;;11.55;;
3297;SDS011;1661;53.572;10.174;2023-03-11T06:59:28;15.13;;;10.90;;
3297;SDS011;1661;53.572;10.174;2023-03-11T07:01:59;13.40;;;11.07;;
3297;SDS011;1661;53.572;10.174;2023-03-11T07:04:29;10.20;;;8.95;;
3297;SDS011;1661;53.572;10.174;2023-03-11T07:06:56;19.77;;;13.93;;
3297;SDS011;1661;53.572;10.174;2023-03-11T07:09:23;11.35;;;9.20;;
3297;SDS011;1661;53.572;10.174;2023-03-11T07:11:51;16.50;;;12.02;;
3297;SDS011;1661;53.572;10.174;2023-03-11T07:14:19;11.98;;;9.63;;
3297;SDS011;1661;53.572;10.174;2023-03-11T07:16:46;16.98;;;11.40;;
3297;SDS011;1661;53.572;10.174;2023-03-11T07:19:14;20.38;;;10.27;;
3297;SDS011;1661;53.572;10.174;2023-03-11T07:21:44;19.42;;;12.07;;
3297;SDS011;1661;53.572;10.174;2023-03-11T07:24:11;13.50;;;9.88;;
3297;SDS011;1661;53.572;10.174;2023-03-11T07:26:39;14.40;;;10.23;;
3297;SDS011;1661;53.572;10.174;2023-03-11T07:29:06;12.32;;;10.27;;
3297;SDS011;1661;53.572;10.174;2023-03-11T07:31:34;10.43;;;9.40;;
3297;SDS011;1661;53.572;10.174;2023-03-11T07:34:02;12.55;;;10.02;;
3297;SDS011;1661;53.572;10.174;2023-03-11T07:36:37;11.25;;;9.20;;
3297;SDS011;1661;53.572;10.174;2023-03-11T07:39:06;14.30;;;9.90;;
3297;SDS011;1661;53.572;10.174;2023-03-11T07:41:36;13.73;;;9.40;;
3297;SDS011;1661;53.572;10.174;2023-03-11T07:44:03;9.30;;;8.40;;
3297;SDS011;1661;53.572;10.174;2023-03-11T07:46:30;18.05;;;10.65;;
3297;SDS011;1661;53.572;10.174;2023-03-11T07:48:59;13.98;;;8.20;;
3297;SDS011;1661;53.572;10.174;2023-03-11T07:51:26;12.82;;;8.57;;
3297;SDS011;1661;53.572;10.174;2023-03-11T07:53:57;11.82;;;9.23;;
3297;SDS011;1661;53.572;10.174;2023-03-11T07:56:25;9.93;;;7.40;;
3297;SDS011;1661;53.572;10.174;2023-03-11T07:58:54;17.85;;;10.60;;
3297;SDS011;1661;53.572;10.174;2023-03-11T08:01:22;11.93;;;9.43;;
3297;SDS011;1661;53.572;10.174;2023-03-11T08:03:53;9.13;;;8.20;;
3297;SDS011;1661;53.572;10.174;2023-03-11T08:06:23;14.98;;;9.30;;
3297;SDS011;1661;53.572;10.174;2023-03-11T08:08:51;12.57;;;8.70;;
3297;SDS011;1661;53.572;10.174;2023-03-11T08:11:19;9.75;;;7.80;;
3297;SDS011;1661;53.572;10.174;2023-03-11T08:13:46;9.18;;;8.00;;
3297;SDS011;1661;53.572;10.174;2023-03-11T08:16:15;11.15;;;8.30;;
3297;SDS011;1661;53.572;10.174;2023-03-11T08:18:43;10.80;;;8.47;;
3297;SDS011;1661;53.572;10.174;2023-03-11T08:21:12;10.80;;;8.20;;
3297;SDS011;1661;53.572;10.174;2023-03-11T08:23:40;9.33;;;7.17;;
3297;SDS011;1661;53.572;10.174;2023-03-11T08:26:10;7.70;;;6.90;;
3297;SDS011;1661;53.572;10.174;2023-03-11T08:28:40;6.10;;;5.50;;
3297;SDS011;1661;53.572;10.174;2023-03-11T08:31:10;11.30;;;6.27;;
3297;SDS011;1661;53.572;10.174;2023-03-11T08:33:41;7.73;;;5.93;;
3297;SDS011;1661;53.572;10.174;2023-03-11T08:36:09;10.80;;;7.67;;
3297;SDS011;1661;53.572;10.174;2023-03-11T08:38:38;9.97;;;6.90;;
3297;SDS011;1661;53.572;10.174;2023-03-11T08:41:05;6.63;;;5.90;;
3297;SDS011;1661;53.572;10.174;2023-03-11T08:43:35;7.20;;;6.17;;
3297;SDS011;1661;53.572;10.174;2023-03-11T08:46:10;9.63;;;7.27;;
3297;SDS011;1661;53.572;10.174;2023-03-11T08:48:40;7.17;;;5.27;;
3297;SDS011;1661;53.572;10.174;2023-03-11T08:51:08;7.53;;;6.73;;
3297;SDS011;1661;53.572;10.174;2023-03-11T08:53:35;7.87;;;4.83;;
3297;SDS011;1661;53.572;10.174;2023-03-11T08:56:02;8.07;;;6.10;;
3297;SDS011;1661;53.572;10.174;2023-03-11T08:58:29;9.80;;;6.83;;
3297;SDS011;1661;53.572;10.174;2023-03-11T09:00:56;5.40;;;4.90;;
3297;SDS011;1661;53.572;10.174;2023-03-11T09:03:24;6.00;;;5.10;;
3297;SDS011;1661;53.572;10.174;2023-03-11T09:05:55;7.47;;;6.77;;
3297;SDS011;1661;53.572;10.174;2023-03-11T09:08:22;4.60;;;4.20;;
3297;SDS011;1661;53.572;10.174;2023-03-11T09:10:49;5.80;;;5.20;;
3297;SDS011;1661;53.572;10.174;2023-03-11T09:13:16;8.93;;;5.30;;
3297;SDS011;1661;53.572;10.174;2023-03-11T09:15:43;5.63;;;5.10;;
3297;SDS011;1661;53.572;10.174;2023-03-11T09:18:10;5.40;;;4.90;;
3297;SDS011;1661;53.572;10.174;2023-03-11T09:20:39;7.90;;;5.63;;
3297;SDS011;1661;53.572;10.174;2023-03-11T09:23:06;6.90;;;5.80;;
3297;SDS011;1661;53.572;10.174;2023-03-11T09:25:33;8.60;;;5.07;;
3297;SDS011;1661;53.572;10.174;2023-03-11T09:28:00;5.03;;;4.53;;
3297;SDS011;1661;53.572;10.174;2023-03-11T09:30:27;10.53;;;5.47;;
3297;SDS011;1661;53.572;10.174;2023-03-11T09:32:53;9.93;;;5.40;;
3297;SDS011;1661;53.572;10.174;2023-03-11T09:35:20;7.33;;;5.33;;
3297;SDS011;1661;53.572;10.174;2023-03-11T09:37:49;6.10;;;4.53;;
3297;SDS011;1661;53.572;10.174;2023-03-11T09:40:17;4.20;;;3.80;;
3297;SDS011;1661;53.572;10.174;2023-03-11T09:42:47;18.10;;;4.93;;
3297;SDS011;1661;53.572;10.174;2023-03-11T09:45:22;8.47;;;4.17;;
3297;SDS011;1661;53.572;10.174;2023-03-11T09:47:59;7.63;;;4.17;;
3297;SDS011;1661;53.572;10.174;2023-03-11T09:50:36;9.83;;;3.90;;
3297;SDS011;1661;53.572;10.174;2023-03-11T09:53:14;6.63;;;4.40;;
3297;SDS011;1661;53.572;10.174;2023-03-11T09:55:54;5.17;;;4.27;;
3297;SDS011;1661;53.572;10.174;2023-03-11T09:58:26;16.43;;;4.17;;
3297;SDS011;1661;53.572;10.174;2023-03-11T10:01:07;7.13;;;4.67;;
3297;SDS011;1661;53.572;10.174;2023-03-11T10:03:47;6.90;;;5.47;;
3297;SDS011;1661;53.572;10.174;2023-03-11T10:06:18;6.57;;;4.00;;
3297;SDS011;1661;53.572;10.174;2023-03-11T10:08:54;5.13;;;4.40;;
3297;SDS011;1661;53.572;10.174;2023-03-11T10:14:24;6.97;;;3.70;;
3297;SDS011;1661;53.572;10.174;2023-03-11T10:17:05;5.17;;;3.77;;
3297;SDS011;1661;53.572;10.174;2023-03-11T10:19:42;10.73;;;3.90;;
3297;SDS011;1661;53.572;10.174;2023-03-11T10:22:14;5.53;;;3.77;;
3297;SDS011;1661;53.572;10.174;2023-03-11T10:24:56;3.90;;;3.60;;
3297;SDS011;1661;53.572;10.174;2023-03-11T10:27:33;4.07;;;3.27;;
3297;SDS011;1661;53.572;10.174;2023-03-11T10:30:05;8.13;;;4.30;;
3297;SDS011;1661;53.572;10.174;2023-03-11T10:32:39;4.40;;;3.50;;
3297;SDS011;1661;53.572;10.174;2023-03-11T10:35:14;3.80;;;2.90;;
3297;SDS011;1661;53.572;10.174;2023-03-11T10:37:45;5.13;;;3.27;;
3297;SDS011;1661;53.572;10.174;2023-03-11T10:40:22;3.03;;;2.53;;
3297;SDS011;1661;53.572;10.174;2023-03-11T10:42:53;6.67;;;3.37;;
3297;SDS011;1661;53.572;10.174;2023-03-11T10:45:22;4.33;;;3.47;;
3297;SDS011;1661;53.572;10.174;2023-03-11T10:47:49;4.80;;;2.97;;
3297;SDS011;1661;53.572;10.174;2023-03-11T10:50:18;7.50;;;4.60;;
3297;SDS011;1661;53.572;10.174;2023-03-11T10:55:32;2.90;;;2.70;;
3297;SDS011;1661;53.572;10.174;2023-03-11T10:58:04;5.07;;;2.63;;
3297;SDS011;1661;53.572;10.174;2023-03-11T11:00:36;6.40;;;4.23;;
3297;SDS011;1661;53.572;10.174;2023-03-11T11:03:02;5.33;;;3.53;;
3297;SDS011;1661;53.572;10.174;2023-03-11T11:05:31;5.40;;;3.53;;
3297;SDS011;1661;53.572;10.174;2023-03-11T11:08:03;2.47;;;2.27;;
3297;SDS011;1661;53.572;10.174;2023-03-11T11:10:33;5.77;;;3.30;;
3297;SDS011;1661;53.572;10.174;2023-03-11T11:13:01;3.30;;;2.30;;
3297;SDS011;1661;53.572;10.174;2023-03-11T11:15:50;4.67;;;2.93;;
3297;SDS011;1661;53.572;10.174;2023-03-11T11:18:20;6.57;;;3.47;;
3297;SDS011;1661;53.572;10.174;2023-03-11T11:20:52;6.20;;;2.97;;
3297;SDS011;1661;53.572;10.174;2023-03-11T11:23:27;3.97;;;2.60;;
3297;SDS011;1661;53.572;10.174;2023-03-11T11:25:59;5.27;;;2.50;;
3297;SDS011;1661;53.572;10.174;2023-03-11T11:28:29;5.00;;;2.90;;
3297;SDS011;1661;53.572;10.174;2023-03-11T11:30:57;7.37;;;3.53;;
3297;SDS011;1661;53.572;10.174;2023-03-11T11:33:26;10.60;;;3.13;;
3297;SDS011;1661;53.572;10.174;2023-03-11T11:35:54;3.00;;;2.70;;
3297;SDS011;1661;53.572;10.174;2023-03-11T11:38:23;3.60;;;3.30;;
3297;SDS011;1661;53.572;10.174;2023-03-11T11:40:52;5.23;;;2.97;;
3297;SDS011;1661;53.572;10.174;2023-03-11T11:43:24;8.00;;;3.30;;
3297;SDS011;1661;53.572;10.174;2023-03-11T11:46:14;8.73;;;4.20;;
3297;SDS011;1661;53.572;10.174;2023-03-11T11:48:47;4.23;;;3.00;;
3297;SDS011;1661;53.572;10.174;2023-03-11T11:51:21;12.70;;;5.37;;
3297;SDS011;1661;53.572;10.174;2023-03-11T11:53:54;13.67;;;5.00;;
3297;SDS011;1661;53.572;10.174;2023-03-11T11:56:24;9.67;;;3.67;;
3297;SDS011;1661;53.572;10.174;2023-03-11T11:58:53;4.77;;;4.00;;
3297;SDS011;1661;53.572;10.174;2023-03-11T12:01:22;4.90;;;2.50;;
3297;SDS011;1661;53.572;10.174;2023-03-11T12:04:11;3.77;;;2.63;;
3297;SDS011;1661;53.572;10.174;2023-03-11T12:06:54;14.53;;;2.93;;
3297;SDS011;1661;53.572;10.174;2023-03-11T12:09:33;7.03;;;2.80;;
3297;SDS011;1661;53.572;10.174;2023-03-11T12:12:07;5.93;;;2.37;;
3297;SDS011;1661;53.572;10.174;2023-03-11T12:14:48;6.17;;;2.83;;
3297;SDS011;1661;53.572;10.174;2023-03-11T12:17:20;3.10;;;2.07;;
3297;SDS011;1661;53.572;10.174;2023-03-11T12:19:50;8.43;;;2.50;;
3297;SDS011;1661;53.572;10.174;2023-03-11T12:25:22;10.53;;;2.53;;
3297;SDS011;1661;53.572;10.174;2023-03-11T12:27:56;4.90;;;1.90;;
3297;SDS011;1661;53.572;10.174;2023-03-11T12:30:30;5.37;;;1.90;;
3297;SDS011;1661;53.572;10.174;2023-03-11T12:33:01;5.07;;;1.70;;
3297;SDS011;1661;53.572;10.174;2023-03-11T12:35:33;7.43;;;3.03;;
3297;SDS011;1661;53.572;10.174;2023-03-11T12:38:05;5.27;;;1.87;;
3297;SDS011;1661;53.572;10.174;2023-03-11T12:40:48;7.73;;;2.33;;
3297;SDS011;1661;53.572;10.174;2023-03-11T12:43:23;16.63;;;4.43;;
3297;SDS011;1661;53.572;10.174;2023-03-11T12:46:09;8.87;;;2.23;;
3297;SDS011;1661;53.572;10.174;2023-03-11T12:48:41;2.97;;;2.00;;
3297;SDS011;1661;53.572;10.174;2023-03-11T12:56:49;13.43;;;4.10;;
3297;SDS011;1661;53.572;10.174;2023-03-11T13:02:45;4.57;;;1.30;;
3297;SDS011;1661;53.572;10.174;2023-03-11T13:05:42;4.17;;;2.37;;
3297;SDS011;1661;53.572;10.174;2023-03-11T13:08:18;18.67;;;5.73;;
3297;SDS011;1661;53.572;10.174;2023-03-11T13:10:47;6.10;;;2.23;;
3297;SDS011;1661;53.572;10.174;2023-03-11T13:13:21;30.53;;;8.80;;
3297;SDS011;1661;53.572;10.174;2023-03-11T13:15:48;19.20;;;6.77;;
3297;SDS011;1661;53.572;10.174;2023-03-11T13:18:22;62.20;;;18.03;;
3297;SDS011;1661;53.572;10.174;2023-03-11T13:20:56;69.60;;;19.70;;
3297;SDS011;1661;53.572;10.174;2023-03-11T13:23:28;40.60;;;10.53;;
3297;SDS011;1661;53.572;10.174;2023-03-11T13:28:56;83.90;;;18.40;;
3297;SDS011;1661;53.572;10.174;2023-03-11T13:31:48;3.43;;;2.27;;
3297;SDS011;1661;53.572;10.174;2023-03-11T13:34:42;14.00;;;2.63;;
3297;SDS011;1661;53.572;10.174;2023-03-11T13:37:18;11.13;;;3.57;;
3297;SDS011;1661;53.572;10.174;2023-03-11T13:39:52;3.57;;;2.10;;
3297;SDS011;1661;53.572;10.174;2023-03-11T13:42:26;4.13;;;2.23;;
3297;SDS011;1661;53.572;10.174;2023-03-11T13:44:56;3.77;;;2.30;;
3297;SDS011;1661;53.572;10.174;2023-03-11T13:47:23;9.73;;;2.27;;
3297;SDS011;1661;53.572;10.174;2023-03-11T13:49:58;5.60;;;2.33;;
3297;SDS011;1661;53.572;10.174;2023-03-11T13:52:28;7.40;;;2.43;;
3297;SDS011;1661;53.572;10.174;2023-03-11T13:54:58;7.90;;;2.40;;
3297;SDS011;1661;53.572;10.174;2023-03-11T13:57:28;5.10;;;2.43;;
3297;SDS011;1661;53.572;10.174;2023-03-11T13:59:57;6.20;;;1.90;;
3297;SDS011;1661;53.572;10.174;2023-03-11T14:02:30;2.53;;;1.83;;
3297;SDS011;1661;53.572;10.174;2023-03-11T14:05:03;3.30;;;2.03;;
3297;SDS011;1661;53.572;10.174;2023-03-11T14:07:32;4.30;;;1.63;;
3297;SDS011;1661;53.572;10.174;2023-03-11T14:13:04;5.27;;;1.53;;
3297;SDS011;1661;53.572;10.174;2023-03-11T14:15:41;6.63;;;2.10;;
3297;SDS011;1661;53.572;10.174;2023-03-11T14:21:12;8.33;;;2.30;;
3297;SDS011;1661;53.572;10.174;2023-03-11T14:23:41;5.83;;;1.80;;
3297;SDS011;1661;53.572;10.174;2023-03-11T14:26:12;9.53;;;1.83;;
3297;SDS011;1661;53.572;10.174;2023-03-11T14:28:42;3.33;;;2.00;;
3297;SDS011;1661;53.572;10.174;2023-03-11T14:31:28;5.47;;;2.47;;
3297;SDS011;1661;53.572;10.174;2023-03-11T14:33:56;6.63;;;2.20;;
3297;SDS011;1661;53.572;10.174;2023-03-11T14:36:29;3.47;;;1.83;;
3297;SDS011;1661;53.572;10.174;2023-03-11T14:39:04;4.53;;;1.77;;
3297;SDS011;1661;53.572;10.174;2023-03-11T14:41:31;10.50;;;1.90;;
3297;SDS011;1661;53.572;10.174;2023-03-11T14:43:59;3.13;;;1.70;;
3297;SDS011;1661;53.572;10.174;2023-03-11T14:46:26;2.30;;;1.47;;
3297;SDS011;1661;53.572;10.174;2023-03-11T14:48:54;7.40;;;2.47;;
3297;SDS011;1661;53.572;10.174;2023-03-11T14:51:23;5.07;;;1.63;;
3297;SDS011;1661;53.572;10.174;2023-03-11T14:53:57;6.60;;;1.53;;
3297;SDS011;1661;53.572;10.174;2023-03-11T14:56:30;5.23;;;2.13;;
3297;SDS011;1661;53.572;10.174;2023-03-11T14:59:05;2.10;;;1.77;;
3297;SDS011;1661;53.572;10.174;2023-03-11T15:01:38;15.57;;;5.03;;
3297;SDS011;1661;53.572;10.174;2023-03-11T15:04:07;7.40;;;3.67;;
3297;SDS011;1661;53.572;10.174;2023-03-11T15:06:37;6.70;;;3.70;;
3297;SDS011;1661;53.572;10.174;2023-03-11T15:09:09;4.87;;;2.07;;
3297;SDS011;1661;53.572;10.174;2023-03-11T15:11:44;8.60;;;4.50;;
3297;SDS011;1661;53.572;10.174;2023-03-11T15:14:15;4.07;;;3.73;;
3297;SDS011;1661;53.572;10.174;2023-03-11T15:16:45;8.33;;;1.40;;
3297;SDS011;1661;53.572;10.174;2023-03-11T15:19:22;4.10;;;2.10;;
3297;SDS011;1661;53.572;10.174;2023-03-11T15:21:58;2.87;;;1.90;;
3297;SDS011;1661;53.572;10.174;2023-03-11T15:24:29;7.67;;;1.73;;
3297;SDS011;1661;53.572;10.174;2023-03-11T15:27:02;4.10;;;1.67;;
3297;SDS011;1661;53.572;10.174;2023-03-11T15:29:31;5.03;;;2.07;;
3297;SDS011;1661;53.572;10.174;2023-03-11T15:31:59;9.07;;;1.77;;